createdAt,value
2023-09-18T00:00:41.576Z,16.5
2023-09-18T00:02:43.737Z,16.5
2023-09-18T00:04:45.744Z,16.5
2023-09-18T00:06:50.944Z,16.5
2023-09-18T00:08:53.272Z,16.5
2023-09-18T00:10:55.150Z,16.5
2023-09-18T00:12:57.169Z,16.4
2023-09-18T00:17:01.559Z,16.5
2023-09-18T00:19:03.363Z,16.4
2023-09-18T00:21:08.576Z,16.4
2023-09-18T00:23:10.709Z,16.3
2023-09-18T00:27:14.810Z,16.4
2023-09-18T00:29:16.914Z,16.3
2023-09-18T00:31:18.952Z,16.5
2023-09-18T00:33:21.352Z,16.4
2023-09-18T00:35:26.260Z,16.4
2023-09-18T00:39:30.357Z,16.4
2023-09-18T00:41:59.008Z,16.4
2023-09-18T00:44:01.102Z,16.4
2023-09-18T00:46:03.220Z,16.4
2023-09-18T00:48:08.377Z,16.4
2023-09-18T00:50:10.491Z,16.4
2023-09-18T00:52:12.521Z,16.4
2023-09-18T00:54:14.594Z,16.4
2023-09-18T00:56:16.710Z,16.3
2023-09-18T00:58:18.727Z,16.4
2023-09-18T01:00:20.787Z,16.4
2023-09-18T01:02:26.156Z,16.4
2023-09-18T01:04:28.100Z,16.5
2023-09-18T01:06:30.159Z,16.5
2023-09-18T01:08:32.290Z,16.5
2023-09-18T01:10:34.291Z,16.5
2023-09-18T01:12:36.358Z,16.4
2023-09-18T01:14:38.456Z,16.4
2023-09-18T01:16:43.763Z,16.5
2023-09-18T01:18:45.719Z,16.5
2023-09-18T01:20:47.785Z,16.4
2023-09-18T01:22:49.846Z,16.5
2023-09-18T01:24:51.935Z,16.4
2023-09-18T01:28:56.143Z,16.4
2023-09-18T01:33:03.383Z,16.4
2023-09-18T01:35:05.508Z,16.4
2023-09-18T01:40:12.177Z,16.3
2023-09-18T01:42:14.255Z,16.4
2023-09-18T01:44:19.497Z,16.3
2023-09-18T01:46:21.582Z,16.4
2023-09-18T01:48:23.649Z,16.4
2023-09-18T01:50:25.753Z,16.4
2023-09-18T01:52:27.777Z,16.4
2023-09-18T01:54:29.853Z,16.5
2023-09-18T01:56:31.929Z,16.4
2023-09-18T02:00:39.212Z,16.4
2023-09-18T02:02:47.584Z,16.5
2023-09-18T02:08:47.563Z,16.5
2023-09-18T02:10:49.570Z,16.5
2023-09-18T02:12:54.774Z,16.4
2023-09-18T02:14:56.837Z,16.4
2023-09-18T02:16:58.981Z,16.5
2023-09-18T02:19:00.970Z,16.5
2023-09-18T02:21:03.091Z,16.4
2023-09-18T02:23:05.130Z,16.4
2023-09-18T02:25:07.193Z,16.4
2023-09-18T02:27:12.403Z,16.4
2023-09-18T02:31:16.542Z,16.6
2023-09-18T02:32:19.238Z,16.6
2023-09-18T02:34:21.223Z,16.6
2023-09-18T02:48:40.392Z,16.7
2023-09-18T02:50:42.522Z,16.7
2023-09-18T02:52:44.544Z,16.7
2023-09-18T02:56:51.820Z,16.7
2023-09-18T02:58:54.280Z,16.6
2023-09-18T03:00:55.964Z,16.6
2023-09-18T03:02:58.208Z,16.6
2023-09-18T03:05:00.289Z,16.6
2023-09-18T03:07:02.214Z,16.6
2023-09-18T03:09:07.411Z,16.6
2023-09-18T03:11:09.526Z,16.6
2023-09-18T03:13:11.573Z,16.6
2023-09-18T03:15:13.626Z,16.6
2023-09-18T03:17:15.751Z,16.8
2023-09-18T03:19:17.776Z,16.7
2023-09-18T03:21:19.872Z,16.8
2023-09-18T03:25:27.146Z,16.8
2023-09-18T03:30:33.893Z,16.8
2023-09-18T03:32:36.016Z,16.8
2023-09-18T03:36:43.260Z,16.8
2023-09-18T03:38:45.312Z,16.9
2023-09-18T03:40:47.385Z,16.9
2023-09-18T03:42:49.449Z,16.9
2023-09-18T03:44:51.539Z,16.9
2023-09-18T03:46:53.604Z,16.9
2023-09-18T03:48:56.131Z,16.9
2023-09-18T03:51:00.935Z,17
2023-09-18T03:53:03.037Z,16.9
2023-09-18T03:55:05.051Z,17
2023-09-18T04:01:11.288Z,17
2023-09-18T04:05:18.589Z,17
2023-09-18T04:07:20.644Z,17.1
2023-09-18T04:11:24.802Z,17
2023-09-18T04:13:26.836Z,17.1
2023-09-18T04:15:28.898Z,17.1
2023-09-18T04:19:36.191Z,17
2023-09-18T04:21:38.273Z,17
2023-09-18T04:26:09.013Z,17.1
2023-09-18T04:28:11.066Z,17.1
2023-09-18T04:30:13.150Z,17.1
2023-09-18T04:36:22.512Z,17.3
2023-09-18T04:40:26.659Z,17.3
2023-09-18T04:46:36.043Z,17.3
2023-09-18T04:48:38.116Z,17.4
2023-09-18T04:50:40.251Z,17.3
2023-09-18T04:52:42.256Z,17.3
2023-09-18T04:54:44.322Z,17.3
2023-09-18T04:58:48.460Z,17.5
2023-09-18T05:00:53.709Z,17.5
2023-09-18T05:02:55.932Z,17.4
2023-09-18T05:04:58.010Z,17.4
2023-09-18T05:11:04.095Z,17.6
2023-09-18T05:15:11.347Z,17.6
2023-09-18T05:17:13.488Z,17.6
2023-09-18T05:19:15.502Z,17.7
2023-09-18T05:20:18.677Z,17.9
2023-09-18T05:28:29.560Z,18.1
2023-09-18T05:32:33.794Z,18.2
2023-09-18T05:40:42.022Z,18.9
2023-09-18T05:42:47.224Z,18.9
2023-09-18T05:44:49.295Z,18.9
2023-09-18T05:46:51.375Z,19.1
2023-09-18T05:48:53.666Z,19.1
2023-09-18T05:50:55.576Z,19.2
2023-09-18T05:52:57.587Z,19.2
2023-09-18T05:55:00.025Z,19.2
2023-09-18T05:59:07.004Z,19.2
2023-09-18T06:01:09.113Z,19.1
2023-09-18T06:03:11.280Z,19.1
2023-09-18T06:05:13.327Z,19
2023-09-18T06:09:17.320Z,19
2023-09-18T06:11:22.570Z,18.9
2023-09-18T06:13:24.608Z,18.9
2023-09-18T06:15:26.681Z,18.9
2023-09-18T06:16:29.317Z,18.8
2023-09-18T06:18:32.635Z,18.9
2023-09-18T06:22:35.515Z,19
2023-09-18T06:24:40.747Z,18.9
2023-09-18T06:36:53.158Z,19
2023-09-18T06:38:58.397Z,19
2023-09-18T06:49:08.739Z,19.2
2023-09-18T07:12:40.783Z,19
2023-09-18T07:14:42.933Z,19.1
2023-09-18T07:16:44.961Z,19.1
2023-09-18T07:20:52.320Z,19.3
2023-09-18T07:22:54.329Z,19.4
2023-09-18T07:26:58.462Z,19.6
2023-09-18T07:29:02.602Z,19.8
2023-09-18T07:33:04.708Z,19.9
2023-09-18T07:35:09.960Z,20.1
2023-09-18T07:41:16.100Z,20.1
2023-09-18T07:43:18.144Z,20.1
2023-09-18T07:45:20.215Z,20.2
2023-09-18T07:55:33.694Z,20.2
2023-09-18T07:59:37.874Z,20.2
2023-09-18T08:01:39.903Z,20.3
2023-09-18T08:03:45.186Z,20.2
2023-09-18T08:07:49.265Z,20.1
2023-09-18T08:10:17.833Z,20.2
2023-09-18T08:12:19.897Z,20.2
2023-09-18T08:14:22.009Z,20.3
2023-09-18T08:16:27.209Z,20.2
2023-09-18T08:20:31.346Z,20.2
2023-09-18T08:24:35.412Z,20.3
2023-09-18T08:32:46.901Z,20.5
2023-09-18T08:42:58.628Z,20.5
2023-09-18T08:45:03.918Z,20.5
2023-09-18T08:47:05.905Z,20.5
2023-09-18T08:49:07.952Z,20.6
2023-09-18T08:51:10.023Z,20.5
2023-09-18T08:53:12.114Z,20.6
2023-09-18T08:55:14.136Z,20.7
2023-09-18T08:57:16.189Z,21.1
2023-09-18T08:59:21.503Z,21.1
2023-09-18T09:01:23.524Z,21.1
2023-09-18T09:03:25.643Z,20.9
2023-09-18T09:04:28.178Z,20.8
2023-09-18T09:06:30.177Z,20.7
2023-09-18T09:08:32.256Z,20.7
2023-09-18T09:10:34.297Z,20.5
2023-09-18T09:12:39.512Z,20.6
2023-09-18T09:14:41.651Z,20.6
2023-09-18T09:16:43.612Z,20.8
2023-09-18T09:18:45.669Z,20.9
2023-09-18T09:20:47.751Z,20.9
2023-09-18T09:22:49.777Z,20.8
2023-09-18T09:24:51.836Z,20.7
2023-09-18T09:28:59.166Z,20.8
2023-09-18T09:31:01.196Z,20.8
2023-09-18T09:41:14.620Z,21
2023-09-18T09:45:18.714Z,21.1
2023-09-18T09:55:32.135Z,21.6
2023-09-18T09:59:36.298Z,21.5
2023-09-18T10:00:38.884Z,21.6
2023-09-18T10:02:41.032Z,21.8
2023-09-18T10:04:42.970Z,21.9
2023-09-18T10:06:45.073Z,21.9
2023-09-18T10:08:50.293Z,22.2
2023-09-18T10:16:58.503Z,22.7
2023-09-18T10:19:00.509Z,22.2
2023-09-18T10:23:07.765Z,22.1
2023-09-18T10:29:13.948Z,22.2
2023-09-18T10:31:15.993Z,22.1
2023-09-18T10:35:20.121Z,22.1
2023-09-18T10:39:27.694Z,21.9
2023-09-18T10:41:29.721Z,21.8
2023-09-18T10:43:31.762Z,21.7
2023-09-18T10:45:33.826Z,21.7
2023-09-18T10:47:35.948Z,21.6
2023-09-18T10:51:43.126Z,21.6
2023-09-18T10:53:45.225Z,21.7
2023-09-18T11:25:24.814Z,21.8
2023-09-18T11:29:28.907Z,21.9
2023-09-18T11:31:30.964Z,21.9
2023-09-18T11:33:36.185Z,22.1
2023-09-18T11:37:40.237Z,22.1
2023-09-18T11:41:44.371Z,22.1
2023-09-18T11:47:53.688Z,22.2
2023-09-18T12:12:47.891Z,23
2023-09-18T12:14:53.130Z,22.8
2023-09-18T12:16:55.138Z,22.6
2023-09-18T12:18:57.175Z,22.9
2023-09-18T12:20:59.246Z,23.1
2023-09-18T12:23:01.257Z,23.1
2023-09-18T12:33:14.725Z,22.7
2023-09-18T12:35:16.814Z,22.5
2023-09-18T12:37:18.723Z,22.5
2023-09-18T12:41:22.852Z,22.5
2023-09-18T12:43:28.027Z,22.8
2023-09-18T12:45:30.073Z,22.8
2023-09-18T12:47:32.177Z,22.8
2023-09-18T12:48:34.888Z,22.9
2023-09-18T12:50:36.836Z,22.9
2023-09-18T12:52:38.827Z,23.1
2023-09-18T12:54:40.856Z,23.1
2023-09-18T12:59:03.420Z,22.8
2023-09-18T13:02:52.266Z,23.3
2023-09-18T13:04:54.259Z,23.7
2023-09-18T13:08:58.409Z,23.9
2023-09-18T13:11:03.542Z,23.5
2023-09-18T13:13:05.584Z,23.6
2023-09-18T13:15:07.600Z,23.5
2023-09-18T13:17:09.652Z,23.5
2023-09-18T13:19:11.691Z,23.5
2023-09-18T13:21:13.722Z,23.9
2023-09-18T13:23:22.029Z,24.4
2023-09-18T13:25:20.981Z,24.2
2023-09-18T13:27:23.004Z,24
2023-09-18T13:29:25.114Z,24.2
2023-09-18T13:31:27.076Z,23.8
2023-09-18T13:33:29.183Z,23.9
2023-09-18T13:35:31.161Z,23.7
2023-09-18T13:37:33.184Z,23.5
2023-09-18T13:44:45.036Z,24
2023-09-18T13:46:47.093Z,24
2023-09-18T13:50:51.126Z,24.3
2023-09-18T13:52:56.321Z,24.3
2023-09-18T13:57:00.394Z,25
2023-09-18T13:59:02.382Z,24.6
2023-09-18T14:01:04.394Z,24.6
2023-09-18T14:03:06.483Z,24.8
2023-09-18T14:05:08.452Z,25.2
2023-09-18T14:07:13.604Z,25.5
2023-09-18T14:09:15.616Z,24.9
2023-09-18T14:11:17.637Z,24.9
2023-09-18T14:13:19.650Z,24.9
2023-09-18T14:15:21.631Z,25.1
2023-09-18T14:17:23.650Z,25
2023-09-18T14:19:25.644Z,25.4
2023-09-18T14:21:30.819Z,25.4
2023-09-18T14:23:32.912Z,24.9
2023-09-18T14:25:34.799Z,24.8
2023-09-18T14:27:36.973Z,24.9
2023-09-18T14:31:42.388Z,24.5
2023-09-18T14:33:44.385Z,24.8
2023-09-18T14:35:49.565Z,24.2
2023-09-18T14:37:51.530Z,24.4
2023-09-18T14:42:58.134Z,25.3
2023-09-18T14:47:02.171Z,25.5
2023-09-18T14:49:07.341Z,24.5
2023-09-18T14:51:09.337Z,24.6
2023-09-18T14:53:11.323Z,24
2023-09-18T14:55:14.236Z,23.7
2023-09-18T14:59:22.149Z,23.6
2023-09-18T15:03:24.633Z,23.5
2023-09-18T15:05:26.618Z,23.3
2023-09-18T15:07:28.598Z,23.2
2023-09-18T15:09:30.630Z,23.2
2023-09-18T15:11:32.653Z,23.2
2023-09-18T15:13:34.651Z,23.3
2023-09-18T15:15:36.685Z,23.2
2023-09-18T15:17:41.902Z,23.3
2023-09-18T15:19:43.897Z,23.4
2023-09-18T15:21:45.945Z,23.4
2023-09-18T15:23:48.037Z,23.4
2023-09-18T15:25:49.946Z,23.3
2023-09-18T15:27:52.065Z,23.2
2023-09-18T15:29:54.068Z,23
2023-09-18T15:31:59.262Z,22.8
2023-09-18T15:34:01.404Z,22.8
2023-09-18T15:36:03.368Z,22.6
2023-09-18T15:38:31.860Z,22.4
2023-09-18T15:40:33.878Z,22.5
2023-09-18T15:48:45.231Z,18.9
2023-09-18T15:50:47.343Z,17.5
2023-09-18T15:52:49.339Z,17
2023-09-18T15:54:51.375Z,16.5
2023-09-18T15:58:58.643Z,16.1
2023-09-18T16:01:00.719Z,16.2
2023-09-18T16:03:02.955Z,16.1
2023-09-18T16:05:04.862Z,16
2023-09-18T16:07:06.933Z,15.9
2023-09-18T16:09:09.005Z,15.8
2023-09-18T16:11:11.083Z,15.8
2023-09-18T16:15:18.364Z,15.8
2023-09-18T16:25:28.738Z,15.6
2023-09-18T16:27:33.985Z,15.7
2023-09-18T16:32:40.983Z,15.8
2023-09-18T16:34:42.852Z,15.8
2023-09-18T16:36:44.917Z,15.9
2023-09-18T16:38:47.035Z,15.7
2023-09-18T16:42:54.252Z,15.8
2023-09-18T16:49:00.509Z,15.9
2023-09-18T16:51:02.610Z,15.9
2023-09-18T16:55:09.874Z,16
2023-09-18T16:57:11.932Z,16
2023-09-18T16:59:14.009Z,16.1
2023-09-18T17:01:16.120Z,16.1
2023-09-18T17:03:18.394Z,16.1
2023-09-18T17:05:20.233Z,16.2
2023-09-18T17:11:29.592Z,16.2
2023-09-18T17:13:31.678Z,16.2
2023-09-18T17:15:33.746Z,16.2
2023-09-18T17:17:35.859Z,16.3
2023-09-18T17:19:37.906Z,16.3
2023-09-18T17:21:39.978Z,16.4
2023-09-18T17:23:45.221Z,16.5
2023-09-18T17:25:47.269Z,16.3
2023-09-18T17:27:49.355Z,16.5
2023-09-18T17:39:05.541Z,16.5
2023-09-18T17:43:09.649Z,16.4
2023-09-18T17:45:11.691Z,16.4
2023-09-18T17:47:22.378Z,16.4
2023-09-18T17:49:15.875Z,16.4
2023-09-18T17:51:21.095Z,16.4
2023-09-18T17:53:23.184Z,16.4
2023-09-18T17:55:25.244Z,16.5
2023-09-18T17:57:27.318Z,16.5
2023-09-18T17:59:29.389Z,16.5
2023-09-18T18:01:31.569Z,16.6
2023-09-18T18:03:33.867Z,16.5
2023-09-18T18:05:39.059Z,16.5
2023-09-18T18:07:40.851Z,16.5
2023-09-18T18:09:42.868Z,16.5
2023-09-18T18:15:49.118Z,16.6
2023-09-18T18:17:51.231Z,16.6
2023-09-18T18:19:56.391Z,16.6
2023-09-18T18:24:00.554Z,16.6
2023-09-18T18:29:07.300Z,16.6
2023-09-18T18:33:14.703Z,16.7
2023-09-18T18:35:16.674Z,16.7
2023-09-18T18:37:18.754Z,16.8
2023-09-18T18:39:20.838Z,16.6
2023-09-18T18:41:22.898Z,16.8
2023-09-18T18:43:24.955Z,16.7
2023-09-18T18:45:27.180Z,16.8
2023-09-18T18:47:32.326Z,16.8
2023-09-18T18:49:34.346Z,16.8
2023-09-18T18:51:36.431Z,16.8
2023-09-18T18:53:38.670Z,16.8
2023-09-18T18:55:40.569Z,16.8
2023-09-18T18:57:42.636Z,16.8
2023-09-18T18:59:44.746Z,16.8
2023-09-18T19:01:55.147Z,16.9
2023-09-18T19:03:52.149Z,16.9
2023-09-18T19:05:54.091Z,17.1
2023-09-18T19:07:56.172Z,17.2
2023-09-18T19:09:59.893Z,17.2
2023-09-18T19:12:00.349Z,17.3
2023-09-18T19:14:02.379Z,17.2
2023-09-18T19:16:07.629Z,17.2
2023-09-18T19:18:09.707Z,17.2
2023-09-18T19:20:11.760Z,17.2
2023-09-18T19:22:40.423Z,17.3
2023-09-18T19:26:44.594Z,17.2
2023-09-18T19:32:54.050Z,17.3
2023-09-18T19:39:00.216Z,17.3
2023-09-18T19:41:02.250Z,17.3
2023-09-18T19:43:07.468Z,17.3
2023-09-18T19:45:09.642Z,17.3
2023-09-18T19:47:11.637Z,17.2
2023-09-18T19:49:13.705Z,17.2
2023-09-18T19:51:15.774Z,17.2
2023-09-18T19:53:17.838Z,17.1
2023-09-18T19:55:28.709Z,17.2
2023-09-18T19:57:25.150Z,17.3
2023-09-18T20:01:29.307Z,17.2
2023-09-18T20:03:31.530Z,17.2
2023-09-18T20:05:33.490Z,17.4
2023-09-18T20:07:35.497Z,17.4
2023-09-18T20:11:42.866Z,17.3
2023-09-18T20:13:44.898Z,17.4
2023-09-18T20:16:50.460Z,17.3
2023-09-18T20:18:51.646Z,17.4
2023-09-18T20:20:53.811Z,17.3
2023-09-18T20:22:57.371Z,17.4
2023-09-18T20:25:02.552Z,17.3
2023-09-18T20:27:04.658Z,17.4
2023-09-18T20:29:06.695Z,17.4
2023-09-18T20:43:24.375Z,17.3
2023-09-18T20:55:39.963Z,17.1
2023-09-18T20:59:45.715Z,17
2023-09-18T21:01:46.214Z,17.1
2023-09-18T21:03:48.577Z,17.1
2023-09-18T21:05:50.378Z,17
2023-09-18T21:07:55.573Z,17
2023-09-18T21:11:59.728Z,17
2023-09-18T21:13:02.345Z,16.9
2023-09-18T21:15:04.470Z,17
2023-09-18T21:17:06.479Z,17
2023-09-18T21:19:08.547Z,16.9
2023-09-18T21:21:17.213Z,16.9
2023-09-18T21:27:19.979Z,16.8
2023-09-18T21:31:24.156Z,16.6
2023-09-18T21:35:31.508Z,16.4
2023-09-18T21:43:39.687Z,16.2
2023-09-18T21:45:41.806Z,16.2
2023-09-18T21:47:43.914Z,16.3
2023-09-18T21:51:51.150Z,16.2
2023-09-18T21:53:53.239Z,16.1
2023-09-18T21:57:57.368Z,16.1
2023-09-18T22:04:07.201Z,16.1
2023-09-18T22:06:08.905Z,16.1
2023-09-18T22:08:10.845Z,16.2
2023-09-18T22:09:13.521Z,16.2
2023-09-18T22:13:17.622Z,16.2
2023-09-18T22:15:19.697Z,16.1
2023-09-18T22:17:24.894Z,16.1
2023-09-18T22:21:29.030Z,16.1
2023-09-18T22:25:33.177Z,16.2
2023-09-18T22:27:35.264Z,16.1
2023-09-18T22:35:46.687Z,16
2023-09-18T22:37:48.740Z,15.9
2023-09-18T22:41:52.938Z,15.6
2023-09-18T22:43:54.972Z,15.3
2023-09-18T22:46:00.177Z,15.2
2023-09-18T22:48:02.320Z,15.1
2023-09-18T22:50:04.334Z,15.2
2023-09-18T22:52:06.449Z,15.1
2023-09-18T22:54:08.454Z,15.1
2023-09-18T22:56:10.537Z,15.1
2023-09-18T22:58:12.666Z,15.1
2023-09-18T23:00:17.852Z,15.1
2023-09-18T23:02:19.973Z,15
2023-09-18T23:04:22.019Z,15.1
2023-09-18T23:13:00.142Z,15
2023-09-18T23:17:04.431Z,15
2023-09-18T23:25:12.701Z,14.8
2023-09-18T23:27:17.805Z,14.9
2023-09-18T23:29:19.859Z,14.9
2023-09-18T23:33:23.990Z,14.8
2023-09-18T23:35:26.079Z,14.8
2023-09-18T23:37:28.220Z,14.7
2023-09-18T23:41:52.143Z,14.6
2023-09-18T23:43:37.689Z,14.6
2023-09-18T23:45:39.611Z,14.6
